sensor_id;sensor_type;location;lat;lon;timestamp;P1;durP1;ratioP1;P2;durP2;ratioP2
9056;SDS011;4563;54.756;9.400;2023-03-21T00:02:21;5.77;;;5.10;;
9056;SDS011;4563;54.756;9.400;2023-03-21T00:04:49;6.10;;;5.10;;
9056;SDS011;4563;54.756;9.400;2023-03-21T00:07:17;6.80;;;4.83;;
9056;SDS011;4563;54.756;9.400;2023-03-21T00:09:44;8.77;;;5.43;;
9056;SDS011;4563;54.756;9.400;2023-03-21T00:12:11;7.07;;;4.80;;
9056;SDS011;4563;54.756;9.400;2023-03-21T00:14:38;7.20;;;4.53;;
9056;SDS011;4563;54.756;9.400;2023-03-21T00:17:05;10.03;;;5.40;;
9056;SDS011;4563;54.756;9.400;2023-03-21T00:19:32;7.93;;;5.23;;
9056;SDS011;4563;54.756;9.400;2023-03-21T00:22:02;14.70;;;5.27;;
9056;SDS011;4563;54.756;9.400;2023-03-21T00:24:31;7.67;;;4.83;;
9056;SDS011;4563;54.756;9.400;2023-03-21T00:26:58;9.97;;;4.97;;
9056;SDS011;4563;54.756;9.400;2023-03-21T00:29:25;9.93;;;4.47;;
9056;SDS011;4563;54.756;9.400;2023-03-21T00:31:51;10.63;;;5.10;;
9056;SDS011;4563;54.756;9.400;2023-03-21T00:34:18;8.07;;;4.70;;
9056;SDS011;4563;54.756;9.400;2023-03-21T00:36:45;10.67;;;5.27;;
9056;SDS011;4563;54.756;9.400;2023-03-21T00:39:12;9.57;;;4.63;;
9056;SDS011;4563;54.756;9.400;2023-03-21T00:41:40;11.57;;;5.23;;
9056;SDS011;4563;54.756;9.400;2023-03-21T00:44:07;11.50;;;5.03;;
9056;SDS011;4563;54.756;9.400;2023-03-21T00:46:35;14.67;;;6.00;;
9056;SDS011;4563;54.756;9.400;2023-03-21T00:49:02;9.57;;;5.67;;
9056;SDS011;4563;54.756;9.400;2023-03-21T00:51:29;14.60;;;5.77;;
9056;SDS011;4563;54.756;9.400;2023-03-21T00:53:56;10.87;;;6.03;;
9056;SDS011;4563;54.756;9.400;2023-03-21T00:56:23;12.13;;;6.13;;
9056;SDS011;4563;54.756;9.400;2023-03-21T00:58:51;12.63;;;6.00;;
9056;SDS011;4563;54.756;9.400;2023-03-21T01:01:18;9.13;;;6.27;;
9056;SDS011;4563;54.756;9.400;2023-03-21T01:03:45;13.87;;;6.83;;
9056;SDS011;4563;54.756;9.400;2023-03-21T01:06:15;9.63;;;6.20;;
9056;SDS011;4563;54.756;9.400;2023-03-21T01:08:43;10.60;;;5.93;;
9056;SDS011;4563;54.756;9.400;2023-03-21T01:11:11;11.23;;;6.53;;
9056;SDS011;4563;54.756;9.400;2023-03-21T01:13:40;15.57;;;6.90;;
9056;SDS011;4563;54.756;9.400;2023-03-21T01:16:09;10.83;;;6.57;;
9056;SDS011;4563;54.756;9.400;2023-03-21T01:18:37;14.57;;;7.70;;
9056;SDS011;4563;54.756;9.400;2023-03-21T01:21:06;9.77;;;6.50;;
9056;SDS011;4563;54.756;9.400;2023-03-21T01:23:34;12.63;;;6.77;;
9056;SDS011;4563;54.756;9.400;2023-03-21T01:26:01;13.27;;;7.40;;
9056;SDS011;4563;54.756;9.400;2023-03-21T01:28:29;11.03;;;6.83;;
9056;SDS011;4563;54.756;9.400;2023-03-21T01:30:56;12.27;;;7.53;;
9056;SDS011;4563;54.756;9.400;2023-03-21T01:33:28;11.57;;;7.20;;
9056;SDS011;4563;54.756;9.400;2023-03-21T01:35:56;11.70;;;7.90;;
9056;SDS011;4563;54.756;9.400;2023-03-21T01:38:23;15.97;;;8.40;;
9056;SDS011;4563;54.756;9.400;2023-03-21T01:40:50;14.67;;;8.40;;
9056;SDS011;4563;54.756;9.400;2023-03-21T01:43:22;15.83;;;8.27;;
9056;SDS011;4563;54.756;9.400;2023-03-21T01:46:19;14.77;;;8.20;;
9056;SDS011;4563;54.756;9.400;2023-03-21T01:48:54;22.93;;;9.30;;
9056;SDS011;4563;54.756;9.400;2023-03-21T01:51:23;15.27;;;8.50;;
9056;SDS011;4563;54.756;9.400;2023-03-21T01:53:52;18.73;;;10.17;;
9056;SDS011;4563;54.756;9.400;2023-03-21T01:56:22;30.07;;;9.70;;
9056;SDS011;4563;54.756;9.400;2023-03-21T01:58:52;15.10;;;8.63;;
9056;SDS011;4563;54.756;9.400;2023-03-21T02:01:21;14.67;;;9.47;;
9056;SDS011;4563;54.756;9.400;2023-03-21T02:03:48;21.93;;;9.70;;
9056;SDS011;4563;54.756;9.400;2023-03-21T02:06:20;15.90;;;8.97;;
9056;SDS011;4563;54.756;9.400;2023-03-21T02:08:54;24.17;;;10.50;;
9056;SDS011;4563;54.756;9.400;2023-03-21T02:11:22;21.33;;;10.17;;
9056;SDS011;4563;54.756;9.400;2023-03-21T02:13:51;16.77;;;10.30;;
9056;SDS011;4563;54.756;9.400;2023-03-21T02:16:20;18.17;;;10.57;;
9056;SDS011;4563;54.756;9.400;2023-03-21T02:18:55;17.57;;;10.07;;
9056;SDS011;4563;54.756;9.400;2023-03-21T02:21:39;17.97;;;9.40;;
9056;SDS011;4563;54.756;9.400;2023-03-21T02:24:35;14.90;;;9.60;;
9056;SDS011;4563;54.756;9.400;2023-03-21T02:27:20;22.87;;;10.67;;
9056;SDS011;4563;54.756;9.400;2023-03-21T02:33:08;14.37;;;9.23;;
9056;SDS011;4563;54.756;9.400;2023-03-21T02:35:47;15.40;;;9.97;;
9056;SDS011;4563;54.756;9.400;2023-03-21T02:38:23;17.63;;;9.77;;
9056;SDS011;4563;54.756;9.400;2023-03-21T02:40:58;20.17;;;8.83;;
9056;SDS011;4563;54.756;9.400;2023-03-21T02:43:32;14.03;;;9.40;;
9056;SDS011;4563;54.756;9.400;2023-03-21T02:46:09;17.10;;;10.70;;
9056;SDS011;4563;54.756;9.400;2023-03-21T02:48:42;33.67;;;10.40;;
9056;SDS011;4563;54.756;9.400;2023-03-21T02:51:17;22.80;;;10.33;;
9056;SDS011;4563;54.756;9.400;2023-03-21T02:53:49;19.97;;;9.83;;
9056;SDS011;4563;54.756;9.400;2023-03-21T02:56:19;17.60;;;10.17;;
9056;SDS011;4563;54.756;9.400;2023-03-21T02:58:47;20.27;;;9.90;;
9056;SDS011;4563;54.756;9.400;2023-03-21T03:01:15;17.73;;;9.80;;
9056;SDS011;4563;54.756;9.400;2023-03-21T03:03:41;23.97;;;10.00;;
9056;SDS011;4563;54.756;9.400;2023-03-21T03:06:09;13.63;;;9.40;;
9056;SDS011;4563;54.756;9.400;2023-03-21T03:08:42;13.97;;;9.43;;
9056;SDS011;4563;54.756;9.400;2023-03-21T03:11:23;11.93;;;8.23;;
9056;SDS011;4563;54.756;9.400;2023-03-21T03:13:56;11.83;;;7.97;;
9056;SDS011;4563;54.756;9.400;2023-03-21T03:16:37;12.63;;;8.30;;
9056;SDS011;4563;54.756;9.400;2023-03-21T03:19:10;10.87;;;7.70;;
9056;SDS011;4563;54.756;9.400;2023-03-21T03:21:48;10.80;;;7.50;;
9056;SDS011;4563;54.756;9.400;2023-03-21T03:24:21;8.83;;;6.53;;
9056;SDS011;4563;54.756;9.400;2023-03-21T03:26:52;8.17;;;6.37;;
9056;SDS011;4563;54.756;9.400;2023-03-21T03:29:22;7.60;;;6.17;;
9056;SDS011;4563;54.756;9.400;2023-03-21T03:31:53;7.63;;;6.10;;
9056;SDS011;4563;54.756;9.400;2023-03-21T03:34:24;8.73;;;6.87;;
9056;SDS011;4563;54.756;9.400;2023-03-21T03:36:57;12.07;;;6.43;;
9056;SDS011;4563;54.756;9.400;2023-03-21T03:39:32;16.13;;;7.37;;
9056;SDS011;4563;54.756;9.400;2023-03-21T03:42:04;9.87;;;7.10;;
9056;SDS011;4563;54.756;9.400;2023-03-21T03:44:35;11.67;;;7.10;;
9056;SDS011;4563;54.756;9.400;2023-03-21T03:47:03;15.70;;;7.67;;
9056;SDS011;4563;54.756;9.400;2023-03-21T03:49:34;11.93;;;7.57;;
9056;SDS011;4563;54.756;9.400;2023-03-21T03:52:03;11.03;;;7.23;;
9056;SDS011;4563;54.756;9.400;2023-03-21T03:54:36;20.07;;;7.33;;
9056;SDS011;4563;54.756;9.400;2023-03-21T03:57:05;17.40;;;8.63;;
9056;SDS011;4563;54.756;9.400;2023-03-21T03:59:33;20.93;;;9.77;;
9056;SDS011;4563;54.756;9.400;2023-03-21T04:02:01;45.93;;;8.73;;
9056;SDS011;4563;54.756;9.400;2023-03-21T04:04:28;35.10;;;8.60;;
9056;SDS011;4563;54.756;9.400;2023-03-21T04:06:55;33.03;;;8.50;;
9056;SDS011;4563;54.756;9.400;2023-03-21T04:09:23;23.87;;;7.77;;
9056;SDS011;4563;54.756;9.400;2023-03-21T04:11:51;17.90;;;9.43;;
9056;SDS011;4563;54.756;9.400;2023-03-21T04:14:18;17.73;;;8.83;;
9056;SDS011;4563;54.756;9.400;2023-03-21T04:16:45;18.60;;;8.83;;
9056;SDS011;4563;54.756;9.400;2023-03-21T04:19:13;26.33;;;9.77;;
9056;SDS011;4563;54.756;9.400;2023-03-21T04:21:40;24.97;;;9.77;;
9056;SDS011;4563;54.756;9.400;2023-03-21T04:24:07;21.67;;;9.60;;
9056;SDS011;4563;54.756;9.400;2023-03-21T04:26:36;17.07;;;9.73;;
9056;SDS011;4563;54.756;9.400;2023-03-21T04:29:04;16.93;;;9.80;;
9056;SDS011;4563;54.756;9.400;2023-03-21T04:31:32;18.43;;;10.33;;
9056;SDS011;4563;54.756;9.400;2023-03-21T04:34:00;19.20;;;10.33;;
9056;SDS011;4563;54.756;9.400;2023-03-21T04:36:29;20.93;;;10.83;;
9056;SDS011;4563;54.756;9.400;2023-03-21T04:39:03;24.07;;;11.87;;
9056;SDS011;4563;54.756;9.400;2023-03-21T04:41:36;18.93;;;10.50;;
9056;SDS011;4563;54.756;9.400;2023-03-21T04:44:04;22.07;;;10.10;;
9056;SDS011;4563;54.756;9.400;2023-03-21T04:46:32;17.13;;;9.50;;
9056;SDS011;4563;54.756;9.400;2023-03-21T04:48:59;18.87;;;9.73;;
9056;SDS011;4563;54.756;9.400;2023-03-21T04:51:26;17.50;;;10.30;;
9056;SDS011;4563;54.756;9.400;2023-03-21T04:53:53;20.03;;;9.87;;
9056;SDS011;4563;54.756;9.400;2023-03-21T04:56:21;21.67;;;10.70;;
9056;SDS011;4563;54.756;9.400;2023-03-21T04:58:54;19.53;;;9.97;;
9056;SDS011;4563;54.756;9.400;2023-03-21T05:01:22;19.13;;;9.77;;
9056;SDS011;4563;54.756;9.400;2023-03-21T05:03:49;18.57;;;9.17;;
9056;SDS011;4563;54.756;9.400;2023-03-21T05:06:16;17.57;;;9.70;;
9056;SDS011;4563;54.756;9.400;2023-03-21T05:08:43;17.27;;;9.07;;
9056;SDS011;4563;54.756;9.400;2023-03-21T05:11:10;22.77;;;10.80;;
9056;SDS011;4563;54.756;9.400;2023-03-21T05:13:37;23.43;;;11.27;;
9056;SDS011;4563;54.756;9.400;2023-03-21T05:16:04;24.27;;;10.83;;
9056;SDS011;4563;54.756;9.400;2023-03-21T05:18:33;24.80;;;10.67;;
9056;SDS011;4563;54.756;9.400;2023-03-21T05:21:02;25.47;;;11.57;;
9056;SDS011;4563;54.756;9.400;2023-03-21T05:23:31;20.67;;;11.33;;
9056;SDS011;4563;54.756;9.400;2023-03-21T05:26:02;26.87;;;11.63;;
9056;SDS011;4563;54.756;9.400;2023-03-21T05:28:29;22.27;;;10.20;;
9056;SDS011;4563;54.756;9.400;2023-03-21T05:31:00;21.30;;;9.83;;
9056;SDS011;4563;54.756;9.400;2023-03-21T05:33:27;18.50;;;9.47;;
9056;SDS011;4563;54.756;9.400;2023-03-21T05:35:55;16.00;;;8.63;;
9056;SDS011;4563;54.756;9.400;2023-03-21T05:38:22;23.90;;;10.00;;
9056;SDS011;4563;54.756;9.400;2023-03-21T05:40:49;18.83;;;9.80;;
9056;SDS011;4563;54.756;9.400;2023-03-21T05:43:17;18.23;;;9.67;;
9056;SDS011;4563;54.756;9.400;2023-03-21T05:45:44;15.87;;;8.60;;
9056;SDS011;4563;54.756;9.400;2023-03-21T05:48:12;12.47;;;7.37;;
9056;SDS011;4563;54.756;9.400;2023-03-21T05:50:39;11.97;;;7.40;;
9056;SDS011;4563;54.756;9.400;2023-03-21T05:53:07;12.87;;;7.53;;
9056;SDS011;4563;54.756;9.400;2023-03-21T05:55:33;12.80;;;6.87;;
9056;SDS011;4563;54.756;9.400;2023-03-21T05:58:00;14.50;;;7.07;;
9056;SDS011;4563;54.756;9.400;2023-03-21T06:00:27;14.70;;;7.33;;
9056;SDS011;4563;54.756;9.400;2023-03-21T06:02:54;15.00;;;7.27;;
9056;SDS011;4563;54.756;9.400;2023-03-21T06:05:21;13.27;;;7.23;;
9056;SDS011;4563;54.756;9.400;2023-03-21T06:07:48;12.43;;;6.67;;
9056;SDS011;4563;54.756;9.400;2023-03-21T06:10:16;13.07;;;6.57;;
9056;SDS011;4563;54.756;9.400;2023-03-21T06:12:43;11.40;;;6.47;;
9056;SDS011;4563;54.756;9.400;2023-03-21T06:15:10;14.17;;;6.10;;
9056;SDS011;4563;54.756;9.400;2023-03-21T06:17:38;11.63;;;6.47;;
9056;SDS011;4563;54.756;9.400;2023-03-21T06:20:05;11.60;;;5.77;;
9056;SDS011;4563;54.756;9.400;2023-03-21T06:22:33;11.23;;;5.63;;
9056;SDS011;4563;54.756;9.400;2023-03-21T06:25:01;11.63;;;5.57;;
9056;SDS011;4563;54.756;9.400;2023-03-21T06:27:30;9.83;;;5.83;;
9056;SDS011;4563;54.756;9.400;2023-03-21T06:29:56;9.17;;;5.43;;
9056;SDS011;4563;54.756;9.400;2023-03-21T06:32:23;10.60;;;5.83;;
9056;SDS011;4563;54.756;9.400;2023-03-21T06:34:50;7.37;;;4.07;;
9056;SDS011;4563;54.756;9.400;2023-03-21T06:37:17;8.07;;;4.17;;
9056;SDS011;4563;54.756;9.400;2023-03-21T06:39:44;7.70;;;3.97;;
9056;SDS011;4563;54.756;9.400;2023-03-21T06:42:11;7.37;;;4.57;;
9056;SDS011;4563;54.756;9.400;2023-03-21T06:44:40;7.83;;;3.73;;
9056;SDS011;4563;54.756;9.400;2023-03-21T06:47:07;7.67;;;3.60;;
9056;SDS011;4563;54.756;9.400;2023-03-21T06:49:33;4.47;;;2.90;;
9056;SDS011;4563;54.756;9.400;2023-03-21T06:52:00;4.87;;;2.70;;
9056;SDS011;4563;54.756;9.400;2023-03-21T06:54:27;5.10;;;2.53;;
9056;SDS011;4563;54.756;9.400;2023-03-21T06:56:54;4.37;;;2.57;;
9056;SDS011;4563;54.756;9.400;2023-03-21T06:59:21;6.17;;;2.57;;
9056;SDS011;4563;54.756;9.400;2023-03-21T07:01:49;5.43;;;2.43;;
9056;SDS011;4563;54.756;9.400;2023-03-21T07:04:16;4.60;;;2.67;;
9056;SDS011;4563;54.756;9.400;2023-03-21T07:06:43;4.40;;;2.63;;
9056;SDS011;4563;54.756;9.400;2023-03-21T07:09:10;6.17;;;2.73;;
9056;SDS011;4563;54.756;9.400;2023-03-21T07:11:37;4.87;;;2.57;;
9056;SDS011;4563;54.756;9.400;2023-03-21T07:14:03;5.80;;;2.87;;
9056;SDS011;4563;54.756;9.400;2023-03-21T07:16:30;7.53;;;3.83;;
9056;SDS011;4563;54.756;9.400;2023-03-21T07:18:58;5.40;;;3.50;;
9056;SDS011;4563;54.756;9.400;2023-03-21T07:21:25;5.23;;;3.13;;
9056;SDS011;4563;54.756;9.400;2023-03-21T07:23:52;7.03;;;3.53;;
9056;SDS011;4563;54.756;9.400;2023-03-21T07:26:19;4.90;;;3.10;;
9056;SDS011;4563;54.756;9.400;2023-03-21T07:28:46;6.33;;;2.67;;
9056;SDS011;4563;54.756;9.400;2023-03-21T07:31:14;7.37;;;3.30;;
9056;SDS011;4563;54.756;9.400;2023-03-21T07:33:43;7.60;;;3.37;;
9056;SDS011;4563;54.756;9.400;2023-03-21T07:36:12;4.47;;;2.83;;
9056;SDS011;4563;54.756;9.400;2023-03-21T07:38:41;6.27;;;3.40;;
9056;SDS011;4563;54.756;9.400;2023-03-21T07:41:08;6.93;;;3.13;;
9056;SDS011;4563;54.756;9.400;2023-03-21T07:43:35;8.27;;;3.70;;
9056;SDS011;4563;54.756;9.400;2023-03-21T07:46:02;5.90;;;3.50;;
9056;SDS011;4563;54.756;9.400;2023-03-21T07:48:30;5.83;;;4.27;;
9056;SDS011;4563;54.756;9.400;2023-03-21T07:50:57;5.87;;;3.63;;
9056;SDS011;4563;54.756;9.400;2023-03-21T07:53:25;5.43;;;3.93;;
9056;SDS011;4563;54.756;9.400;2023-03-21T07:55:52;6.73;;;3.80;;
9056;SDS011;4563;54.756;9.400;2023-03-21T07:58:20;5.30;;;3.93;;
9056;SDS011;4563;54.756;9.400;2023-03-21T08:00:48;8.57;;;4.90;;
9056;SDS011;4563;54.756;9.400;2023-03-21T08:03:15;11.40;;;5.80;;
9056;SDS011;4563;54.756;9.400;2023-03-21T08:05:42;9.53;;;5.83;;
9056;SDS011;4563;54.756;9.400;2023-03-21T08:08:10;10.80;;;5.93;;
9056;SDS011;4563;54.756;9.400;2023-03-21T08:10:38;10.37;;;6.50;;
9056;SDS011;4563;54.756;9.400;2023-03-21T08:13:09;12.97;;;7.27;;
9056;SDS011;4563;54.756;9.400;2023-03-21T08:15:36;13.00;;;7.53;;
9056;SDS011;4563;54.756;9.400;2023-03-21T08:18:03;12.63;;;7.97;;
9056;SDS011;4563;54.756;9.400;2023-03-21T08:20:30;17.13;;;8.97;;
9056;SDS011;4563;54.756;9.400;2023-03-21T08:22:57;13.37;;;7.87;;
9056;SDS011;4563;54.756;9.400;2023-03-21T08:25:24;15.27;;;9.03;;
9056;SDS011;4563;54.756;9.400;2023-03-21T08:27:52;14.47;;;8.67;;
9056;SDS011;4563;54.756;9.400;2023-03-21T08:30:20;12.63;;;8.07;;
9056;SDS011;4563;54.756;9.400;2023-03-21T08:32:49;13.47;;;8.87;;
9056;SDS011;4563;54.756;9.400;2023-03-21T08:35:17;12.13;;;7.87;;
9056;SDS011;4563;54.756;9.400;2023-03-21T08:37:45;11.13;;;7.70;;
9056;SDS011;4563;54.756;9.400;2023-03-21T08:40:12;13.13;;;8.13;;
9056;SDS011;4563;54.756;9.400;2023-03-21T08:42:40;15.67;;;9.13;;
9056;SDS011;4563;54.756;9.400;2023-03-21T08:45:09;13.17;;;8.23;;
9056;SDS011;4563;54.756;9.400;2023-03-21T08:47:37;13.07;;;8.23;;
9056;SDS011;4563;54.756;9.400;2023-03-21T08:50:05;14.33;;;7.77;;
9056;SDS011;4563;54.756;9.400;2023-03-21T08:52:33;12.30;;;8.23;;
9056;SDS011;4563;54.756;9.400;2023-03-21T08:55:01;11.77;;;7.87;;
9056;SDS011;4563;54.756;9.400;2023-03-21T08:57:28;12.23;;;9.03;;
9056;SDS011;4563;54.756;9.400;2023-03-21T08:59:55;11.10;;;8.10;;
9056;SDS011;4563;54.756;9.400;2023-03-21T09:02:23;12.80;;;9.03;;
9056;SDS011;4563;54.756;9.400;2023-03-21T09:04:50;12.03;;;8.80;;
9056;SDS011;4563;54.756;9.400;2023-03-21T09:07:18;11.70;;;9.07;;
9056;SDS011;4563;54.756;9.400;2023-03-21T09:09:46;10.07;;;7.97;;
9056;SDS011;4563;54.756;9.400;2023-03-21T09:12:16;12.90;;;9.03;;
9056;SDS011;4563;54.756;9.400;2023-03-21T09:14:43;12.83;;;9.37;;
9056;SDS011;4563;54.756;9.400;2023-03-21T09:17:09;13.30;;;9.13;;
9056;SDS011;4563;54.756;9.400;2023-03-21T09:19:37;11.97;;;8.37;;
9056;SDS011;4563;54.756;9.400;2023-03-21T09:22:04;11.50;;;7.53;;
9056;SDS011;4563;54.756;9.400;2023-03-21T09:24:35;8.33;;;6.77;;
9056;SDS011;4563;54.756;9.400;2023-03-21T09:27:02;11.07;;;6.83;;
9056;SDS011;4563;54.756;9.400;2023-03-21T09:29:29;8.90;;;7.80;;
9056;SDS011;4563;54.756;9.400;2023-03-21T09:31:56;11.80;;;7.90;;
9056;SDS011;4563;54.756;9.400;2023-03-21T09:34:23;11.27;;;7.87;;
9056;SDS011;4563;54.756;9.400;2023-03-21T09:36:51;9.83;;;7.47;;
9056;SDS011;4563;54.756;9.400;2023-03-21T09:39:20;10.03;;;7.27;;
9056;SDS011;4563;54.756;9.400;2023-03-21T09:41:51;11.00;;;8.40;;
9056;SDS011;4563;54.756;9.400;2023-03-21T09:44:36;10.47;;;7.53;;
9056;SDS011;4563;54.756;9.400;2023-03-21T09:47:12;10.53;;;7.97;;
9056;SDS011;4563;54.756;9.400;2023-03-21T09:49:46;10.10;;;7.73;;
9056;SDS011;4563;54.756;9.400;2023-03-21T09:52:18;9.70;;;6.77;;
9056;SDS011;4563;54.756;9.400;2023-03-21T09:54:49;10.00;;;7.20;;
9056;SDS011;4563;54.756;9.400;2023-03-21T09:57:21;9.10;;;7.67;;
9056;SDS011;4563;54.756;9.400;2023-03-21T09:59:54;9.77;;;7.70;;
9056;SDS011;4563;54.756;9.400;2023-03-21T10:02:33;10.90;;;7.60;;
9056;SDS011;4563;54.756;9.400;2023-03-21T10:05:05;11.67;;;8.10;;
9056;SDS011;4563;54.756;9.400;2023-03-21T10:07:39;10.77;;;7.77;;
9056;SDS011;4563;54.756;9.400;2023-03-21T10:10:11;7.57;;;6.33;;
9056;SDS011;4563;54.756;9.400;2023-03-21T10:12:42;11.93;;;8.23;;
9056;SDS011;4563;54.756;9.400;2023-03-21T10:15:13;8.87;;;6.80;;
9056;SDS011;4563;54.756;9.400;2023-03-21T10:17:42;10.93;;;7.00;;
9056;SDS011;4563;54.756;9.400;2023-03-21T10:20:13;9.87;;;6.80;;
9056;SDS011;4563;54.756;9.400;2023-03-21T10:22:43;10.07;;;7.17;;
9056;SDS011;4563;54.756;9.400;2023-03-21T10:25:12;7.93;;;6.17;;
9056;SDS011;4563;54.756;9.400;2023-03-21T10:27:41;7.43;;;5.63;;
9056;SDS011;4563;54.756;9.400;2023-03-21T10:30:10;9.50;;;6.37;;
9056;SDS011;4563;54.756;9.400;2023-03-21T10:32:46;8.10;;;6.50;;
9056;SDS011;4563;54.756;9.400;2023-03-21T10:35:13;7.60;;;5.73;;
9056;SDS011;4563;54.756;9.400;2023-03-21T10:37:40;5.73;;;5.20;;
9056;SDS011;4563;54.756;9.400;2023-03-21T10:40:10;6.67;;;5.17;;
9056;SDS011;4563;54.756;9.400;2023-03-21T10:42:41;5.47;;;4.70;;
9056;SDS011;4563;54.756;9.400;2023-03-21T10:45:13;5.87;;;4.50;;
9056;SDS011;4563;54.756;9.400;2023-03-21T10:47:42;4.87;;;4.27;;
9056;SDS011;4563;54.756;9.400;2023-03-21T10:50:15;5.30;;;4.23;;
9056;SDS011;4563;54.756;9.400;2023-03-21T10:52:52;5.50;;;4.00;;
9056;SDS011;4563;54.756;9.400;2023-03-21T10:55:24;5.73;;;4.07;;
9056;SDS011;4563;54.756;9.400;2023-03-21T10:57:58;4.37;;;3.97;;
9056;SDS011;4563;54.756;9.400;2023-03-21T11:00:28;4.67;;;4.20;;
9056;SDS011;4563;54.756;9.400;2023-03-21T11:03:00;4.07;;;3.67;;
9056;SDS011;4563;54.756;9.400;2023-03-21T11:05:32;4.93;;;3.40;;
9056;SDS011;4563;54.756;9.400;2023-03-21T11:08:03;4.67;;;3.77;;
9056;SDS011;4563;54.756;9.400;2023-03-21T11:10:32;3.83;;;3.07;;
9056;SDS011;4563;54.756;9.400;2023-03-21T11:13:04;3.30;;;3.00;;
9056;SDS011;4563;54.756;9.400;2023-03-21T11:15:37;3.70;;;3.17;;
9056;SDS011;4563;54.756;9.400;2023-03-21T11:18:14;3.40;;;3.10;;
9056;SDS011;4563;54.756;9.400;2023-03-21T11:20:46;3.97;;;2.80;;
9056;SDS011;4563;54.756;9.400;2023-03-21T11:23:17;3.70;;;3.03;;
9056;SDS011;4563;54.756;9.400;2023-03-21T11:25:45;5.20;;;2.90;;
9056;SDS011;4563;54.756;9.400;2023-03-21T11:28:15;3.00;;;2.73;;
9056;SDS011;4563;54.756;9.400;2023-03-21T11:30:48;3.03;;;2.67;;
9056;SDS011;4563;54.756;9.400;2023-03-21T11:33:18;3.73;;;2.77;;
9056;SDS011;4563;54.756;9.400;2023-03-21T11:35:56;4.07;;;3.17;;
9056;SDS011;4563;54.756;9.400;2023-03-21T11:38:28;3.13;;;2.83;;
9056;SDS011;4563;54.756;9.400;2023-03-21T11:40:57;3.93;;;2.57;;
9056;SDS011;4563;54.756;9.400;2023-03-21T11:43:27;3.40;;;3.10;;
9056;SDS011;4563;54.756;9.400;2023-03-21T11:45:56;5.00;;;2.80;;
9056;SDS011;4563;54.756;9.400;2023-03-21T11:48:23;2.77;;;2.00;;
9056;SDS011;4563;54.756;9.400;2023-03-21T11:50:51;4.30;;;2.63;;
9056;SDS011;4563;54.756;9.400;2023-03-21T11:53:26;3.80;;;2.70;;
9056;SDS011;4563;54.756;9.400;2023-03-21T11:56:07;3.73;;;3.00;;
9056;SDS011;4563;54.756;9.400;2023-03-21T11:58:51;3.50;;;2.60;;
9056;SDS011;4563;54.756;9.400;2023-03-21T12:01:33;2.27;;;2.07;;
9056;SDS011;4563;54.756;9.400;2023-03-21T12:04:11;2.60;;;2.20;;
9056;SDS011;4563;54.756;9.400;2023-03-21T12:06:51;2.90;;;1.83;;
9056;SDS011;4563;54.756;9.400;2023-03-21T12:09:28;2.87;;;1.93;;
9056;SDS011;4563;54.756;9.400;2023-03-21T12:12:05;3.90;;;2.10;;
9056;SDS011;4563;54.756;9.400;2023-03-21T12:14:43;3.23;;;2.43;;
9056;SDS011;4563;54.756;9.400;2023-03-21T12:17:19;2.27;;;1.80;;
9056;SDS011;4563;54.756;9.400;2023-03-21T12:20:13;3.80;;;2.07;;
9056;SDS011;4563;54.756;9.400;2023-03-21T12:22:51;3.30;;;2.60;;
9056;SDS011;4563;54.756;9.400;2023-03-21T12:25:28;3.10;;;2.80;;
9056;SDS011;4563;54.756;9.400;2023-03-21T12:28:03;3.60;;;3.03;;
9056;SDS011;4563;54.756;9.400;2023-03-21T12:30:41;3.40;;;3.10;;
9056;SDS011;4563;54.756;9.400;2023-03-21T12:33:19;3.60;;;3.30;;
9056;SDS011;4563;54.756;9.400;2023-03-21T12:36:02;3.43;;;3.13;;
9056;SDS011;4563;54.756;9.400;2023-03-21T12:38:43;4.27;;;3.63;;
9056;SDS011;4563;54.756;9.400;2023-03-21T12:41:22;4.43;;;4.00;;
9056;SDS011;4563;54.756;9.400;2023-03-21T12:43:52;5.87;;;4.23;;
9056;SDS011;4563;54.756;9.400;2023-03-21T12:46:25;5.70;;;3.67;;
9056;SDS011;4563;54.756;9.400;2023-03-21T12:48:58;3.37;;;3.17;;
9056;SDS011;4563;54.756;9.400;2023-03-21T12:51:27;5.43;;;3.87;;
9056;SDS011;4563;54.756;9.400;2023-03-21T12:53:58;5.07;;;4.67;;
9056;SDS011;4563;54.756;9.400;2023-03-21T12:56:43;5.60;;;5.13;;
9056;SDS011;4563;54.756;9.400;2023-03-21T12:59:17;5.77;;;5.17;;
9056;SDS011;4563;54.756;9.400;2023-03-21T13:01:52;6.60;;;5.33;;
9056;SDS011;4563;54.756;9.400;2023-03-21T13:04:29;6.10;;;5.13;;
9056;SDS011;4563;54.756;9.400;2023-03-21T13:07:02;4.53;;;4.13;;
9056;SDS011;4563;54.756;9.400;2023-03-21T13:09:33;5.87;;;4.67;;
9056;SDS011;4563;54.756;9.400;2023-03-21T13:12:05;5.60;;;5.10;;
9056;SDS011;4563;54.756;9.400;2023-03-21T13:14:44;5.10;;;4.60;;
9056;SDS011;4563;54.756;9.400;2023-03-21T13:17:23;4.87;;;4.03;;
9056;SDS011;4563;54.756;9.400;2023-03-21T13:19:57;3.93;;;3.63;;
9056;SDS011;4563;54.756;9.400;2023-03-21T13:22:34;2.63;;;2.53;;
9056;SDS011;4563;54.756;9.400;2023-03-21T13:25:03;2.60;;;2.40;;
9056;SDS011;4563;54.756;9.400;2023-03-21T13:27:33;2.40;;;2.20;;
9056;SDS011;4563;54.756;9.400;2023-03-21T13:30:02;2.00;;;1.90;;
9056;SDS011;4563;54.756;9.400;2023-03-21T13:32:31;2.37;;;2.20;;
9056;SDS011;4563;54.756;9.400;2023-03-21T13:35:01;2.50;;;1.70;;
9056;SDS011;4563;54.756;9.400;2023-03-21T13:37:38;1.60;;;1.50;;
9056;SDS011;4563;54.756;9.400;2023-03-21T13:40:19;1.63;;;1.53;;
9056;SDS011;4563;54.756;9.400;2023-03-21T13:42:50;1.97;;;1.70;;
9056;SDS011;4563;54.756;9.400;2023-03-21T13:45:22;1.47;;;1.37;;
9056;SDS011;4563;54.756;9.400;2023-03-21T13:47:52;1.20;;;1.20;;
9056;SDS011;4563;54.756;9.400;2023-03-21T13:50:25;1.07;;;1.07;;
9056;SDS011;4563;54.756;9.400;2023-03-21T13:55:57;0.83;;;0.80;;
9056;SDS011;4563;54.756;9.400;2023-03-21T13:58:49;1.00;;;1.00;;
9056;SDS011;4563;54.756;9.400;2023-03-21T14:01:23;0.70;;;0.70;;
9056;SDS011;4563;54.756;9.400;2023-03-21T14:04:01;0.80;;;0.80;;
9056;SDS011;4563;54.756;9.400;2023-03-21T14:06:43;0.70;;;0.70;;
9056;SDS011;4563;54.756;9.400;2023-03-21T14:09:16;0.73;;;0.73;;
9056;SDS011;4563;54.756;9.400;2023-03-21T14:11:48;0.50;;;0.50;;
9056;SDS011;4563;54.756;9.400;2023-03-21T14:14:18;0.80;;;0.80;;
9056;SDS011;4563;54.756;9.400;2023-03-21T14:16:46;0.83;;;0.83;;
9056;SDS011;4563;54.756;9.400;2023-03-21T14:19:13;0.60;;;0.60;;
9056;SDS011;4563;54.756;9.400;2023-03-21T14:21:45;2.00;;;1.67;;
9056;SDS011;4563;54.756;9.400;2023-03-21T14:24:15;1.10;;;1.10;;
9056;SDS011;4563;54.756;9.400;2023-03-21T14:26:44;0.60;;;0.60;;
9056;SDS011;4563;54.756;9.400;2023-03-21T14:29:14;1.13;;;1.10;;
9056;SDS011;4563;54.756;9.400;2023-03-21T14:31:48;1.37;;;0.90;;
9056;SDS011;4563;54.756;9.400;2023-03-21T14:34:15;0.80;;;0.80;;
9056;SDS011;4563;54.756;9.400;2023-03-21T14:36:43;0.67;;;0.67;;
9056;SDS011;4563;54.756;9.400;2023-03-21T14:39:12;0.53;;;0.53;;
9056;SDS011;4563;54.756;9.400;2023-03-21T14:41:42;0.50;;;0.50;;
9056;SDS011;4563;54.756;9.400;2023-03-21T14:44:13;0.57;;;0.57;;
9056;SDS011;4563;54.756;9.400;2023-03-21T14:46:47;0.60;;;0.60;;
9056;SDS011;4563;54.756;9.400;2023-03-21T14:49:18;0.70;;;0.70;;
9056;SDS011;4563;54.756;9.400;2023-03-21T14:51:49;0.80;;;0.80;;
9056;SDS011;4563;54.756;9.400;2023-03-21T14:54:18;0.90;;;0.90;;
9056;SDS011;4563;54.756;9.400;2023-03-21T14:56:46;0.90;;;0.53;;
9056;SDS011;4563;54.756;9.400;2023-03-21T14:59:16;1.07;;;0.70;;
9056;SDS011;4563;54.756;9.400;2023-03-21T15:01:47;0.80;;;0.80;;
9056;SDS011;4563;54.756;9.400;2023-03-21T15:04:16;0.90;;;0.90;;
9056;SDS011;4563;54.756;9.400;2023-03-21T15:06:50;1.77;;;1.10;;
9056;SDS011;4563;54.756;9.400;2023-03-21T15:09:18;1.83;;;1.07;;
9056;SDS011;4563;54.756;9.400;2023-03-21T15:11:49;2.17;;;1.10;;
9056;SDS011;4563;54.756;9.400;2023-03-21T15:14:17;1.00;;;0.90;;
9056;SDS011;4563;54.756;9.400;2023-03-21T15:16:49;2.13;;;1.93;;
9056;SDS011;4563;54.756;9.400;2023-03-21T15:19:18;1.20;;;1.10;;
9056;SDS011;4563;54.756;9.400;2023-03-21T15:21:49;3.60;;;1.13;;
9056;SDS011;4563;54.756;9.400;2023-03-21T15:24:19;1.07;;;1.07;;
9056;SDS011;4563;54.756;9.400;2023-03-21T15:26:50;1.37;;;1.27;;
9056;SDS011;4563;54.756;9.400;2023-03-21T15:29:21;1.20;;;1.07;;
9056;SDS011;4563;54.756;9.400;2023-03-21T15:31:52;1.80;;;1.33;;
9056;SDS011;4563;54.756;9.400;2023-03-21T15:34:20;1.73;;;1.63;;